sensor_id;sensor_type;location;lat;lon;timestamp;pressure;altitude;pressure_sealevel;temperature;humidity
28027;BME280;15344;52.342;-1.290;2024-01-06T00:00:32;99615.39;;;9.73;98.22
28027;BME280;15344;52.342;-1.290;2024-01-06T00:02:58;99621.47;;;11.26;92.08
28027;BME280;15344;52.342;-1.290;2024-01-06T00:05:23;99617.11;;;10.59;96.83
28027;BME280;15344;52.342;-1.290;2024-01-06T00:07:48;99619.46;;;10.76;97.07
28027;BME280;15344;52.342;-1.290;2024-01-06T00:10:13;99622.11;;;11.12;93.76
28027;BME280;15344;52.342;-1.290;2024-01-06T00:12:39;99626.07;;;11.23;93.89
28027;BME280;15344;52.342;-1.290;2024-01-06T00:15:06;99627.48;;;11.02;94.22
28027;BME280;15344;52.342;-1.290;2024-01-06T00:17:30;99630.90;;;11.31;94.45
28027;BME280;15344;52.342;-1.290;2024-01-06T00:19:56;99634.10;;;11.20;94.33
28027;BME280;15344;52.342;-1.290;2024-01-06T00:22:21;99638.31;;;10.57;96.25
28027;BME280;15344;52.342;-1.290;2024-01-06T00:24:46;99638.67;;;10.97;94.90
28027;BME280;15344;52.342;-1.290;2024-01-06T00:27:12;99639.73;;;11.25;95.03
28027;BME280;15344;52.342;-1.290;2024-01-06T00:29:38;99640.09;;;10.90;96.43
28027;BME280;15344;52.342;-1.290;2024-01-06T00:32:03;99644.02;;;10.90;94.41
28027;BME280;15344;52.342;-1.290;2024-01-06T00:34:28;99646.44;;;10.81;93.23
28027;BME280;15344;52.342;-1.290;2024-01-06T00:36:53;99649.68;;;11.21;93.05
28027;BME280;15344;52.342;-1.290;2024-01-06T00:39:20;99650.42;;;11.02;92.57
28027;BME280;15344;52.342;-1.290;2024-01-06T00:41:44;99656.24;;;11.05;94.03
28027;BME280;15344;52.342;-1.290;2024-01-06T00:44:09;99656.14;;;11.19;93.31
28027;BME280;15344;52.342;-1.290;2024-01-06T00:46:35;99659.00;;;11.49;92.12
28027;BME280;15344;52.342;-1.290;2024-01-06T00:49:01;99656.66;;;11.05;92.73
28027;BME280;15344;52.342;-1.290;2024-01-06T00:51:26;99654.19;;;10.65;96.43
28027;BME280;15344;52.342;-1.290;2024-01-06T00:53:51;99660.01;;;11.34;92.76
28027;BME280;15344;52.342;-1.290;2024-01-06T00:56:16;99660.96;;;10.83;95.23
28027;BME280;15344;52.342;-1.290;2024-01-06T00:58:42;99665.08;;;11.13;93.79
28027;BME280;15344;52.342;-1.290;2024-01-06T01:01:08;99664.95;;;10.24;94.00
28027;BME280;15344;52.342;-1.290;2024-01-06T01:03:33;99666.34;;;10.44;97.76
28027;BME280;15344;52.342;-1.290;2024-01-06T01:05:58;99670.09;;;11.20;93.18
28027;BME280;15344;52.342;-1.290;2024-01-06T01:08:23;99672.55;;;10.67;94.94
28027;BME280;15344;52.342;-1.290;2024-01-06T01:10:49;99675.92;;;11.23;93.74
28027;BME280;15344;52.342;-1.290;2024-01-06T01:13:14;99677.05;;;10.43;96.62
28027;BME280;15344;52.342;-1.290;2024-01-06T01:15:39;99678.27;;;10.66;94.25
28027;BME280;15344;52.342;-1.290;2024-01-06T01:18:05;99680.14;;;10.88;93.51
28027;BME280;15344;52.342;-1.290;2024-01-06T01:20:30;99690.54;;;10.65;95.15
28027;BME280;15344;52.342;-1.290;2024-01-06T01:22:55;99691.78;;;10.83;94.41
28027;BME280;15344;52.342;-1.290;2024-01-06T01:25:21;99697.84;;;10.47;96.15
28027;BME280;15344;52.342;-1.290;2024-01-06T01:27:46;99701.15;;;10.49;96.38
28027;BME280;15344;52.342;-1.290;2024-01-06T01:30:12;99702.91;;;10.22;97.08
28027;BME280;15344;52.342;-1.290;2024-01-06T01:32:37;99702.37;;;10.97;92.94
28027;BME280;15344;52.342;-1.290;2024-01-06T01:35:02;99712.91;;;10.48;95.98
28027;BME280;15344;52.342;-1.290;2024-01-06T01:37:27;99708.94;;;11.11;91.97
28027;BME280;15344;52.342;-1.290;2024-01-06T01:39:53;99715.97;;;10.01;98.50
28027;BME280;15344;52.342;-1.290;2024-01-06T01:42:18;99716.92;;;10.20;97.09
28027;BME280;15344;52.342;-1.290;2024-01-06T01:44:44;99716.44;;;10.72;95.35
28027;BME280;15344;52.342;-1.290;2024-01-06T01:47:09;99714.99;;;10.98;93.88
28027;BME280;15344;52.342;-1.290;2024-01-06T01:49:35;99717.82;;;10.83;97.38
28027;BME280;15344;52.342;-1.290;2024-01-06T01:52:00;99720.61;;;10.84;95.28
28027;BME280;15344;52.342;-1.290;2024-01-06T01:54:26;99721.55;;;10.03;97.92
28027;BME280;15344;52.342;-1.290;2024-01-06T01:56:51;99720.18;;;11.38;94.79
28027;BME280;15344;52.342;-1.290;2024-01-06T01:59:18;99726.66;;;10.73;94.91
28027;BME280;15344;52.342;-1.290;2024-01-06T02:01:42;99726.37;;;10.82;94.62
28027;BME280;15344;52.342;-1.290;2024-01-06T02:04:08;99731.71;;;10.28;97.61
28027;BME280;15344;52.342;-1.290;2024-01-06T02:06:33;99731.86;;;10.58;96.04
28027;BME280;15344;52.342;-1.290;2024-01-06T02:08:58;99736.79;;;10.50;95.51
28027;BME280;15344;52.342;-1.290;2024-01-06T02:11:23;99743.63;;;10.10;96.99
28027;BME280;15344;52.342;-1.290;2024-01-06T02:13:49;99746.00;;;10.16;99.77
28027;BME280;15344;52.342;-1.290;2024-01-06T02:16:14;99748.00;;;10.28;99.66
28027;BME280;15344;52.342;-1.290;2024-01-06T02:18:40;99754.69;;;9.72;100.00
28027;BME280;15344;52.342;-1.290;2024-01-06T02:21:06;99758.10;;;9.74;100.00
28027;BME280;15344;52.342;-1.290;2024-01-06T02:23:33;99762.23;;;9.96;100.00
28027;BME280;15344;52.342;-1.290;2024-01-06T02:25:56;99767.70;;;10.56;98.44
28027;BME280;15344;52.342;-1.290;2024-01-06T02:28:22;99770.75;;;10.69;99.39
28027;BME280;15344;52.342;-1.290;2024-01-06T02:30:47;99774.87;;;8.99;100.00
28027;BME280;15344;52.342;-1.290;2024-01-06T02:33:12;99776.15;;;9.94;100.00
28027;BME280;15344;52.342;-1.290;2024-01-06T02:35:38;99783.09;;;10.33;99.83
28027;BME280;15344;52.342;-1.290;2024-01-06T02:38:04;99789.33;;;10.30;98.80
28027;BME280;15344;52.342;-1.290;2024-01-06T02:40:29;99788.66;;;9.88;100.00
28027;BME280;15344;52.342;-1.290;2024-01-06T02:42:55;99790.05;;;10.40;100.00
28027;BME280;15344;52.342;-1.290;2024-01-06T02:45:20;99793.72;;;10.48;98.32
28027;BME280;15344;52.342;-1.290;2024-01-06T02:47:45;99791.64;;;8.91;100.00
28027;BME280;15344;52.342;-1.290;2024-01-06T02:50:11;99794.93;;;8.95;100.00
28027;BME280;15344;52.342;-1.290;2024-01-06T02:52:36;99793.51;;;9.35;100.00
28027;BME280;15344;52.342;-1.290;2024-01-06T02:55:02;99795.04;;;9.87;100.00
28027;BME280;15344;52.342;-1.290;2024-01-06T02:57:29;99798.61;;;10.39;99.28
28027;BME280;15344;52.342;-1.290;2024-01-06T02:59:53;99801.39;;;9.98;100.00
28027;BME280;15344;52.342;-1.290;2024-01-06T03:02:18;99800.94;;;10.99;97.95
28027;BME280;15344;52.342;-1.290;2024-01-06T03:04:43;99800.25;;;11.36;94.41
28027;BME280;15344;52.342;-1.290;2024-01-06T03:07:09;99801.46;;;10.74;96.54
28027;BME280;15344;52.342;-1.290;2024-01-06T03:09:34;99805.64;;;11.37;92.89
28027;BME280;15344;52.342;-1.290;2024-01-06T03:11:59;99808.42;;;11.43;91.78
28027;BME280;15344;52.342;-1.290;2024-01-06T03:14:25;99806.31;;;11.64;89.98
28027;BME280;15344;52.342;-1.290;2024-01-06T03:16:50;99810.88;;;10.79;93.58
28027;BME280;15344;52.342;-1.290;2024-01-06T03:19:16;99818.54;;;10.24;98.01
28027;BME280;15344;52.342;-1.290;2024-01-06T03:21:41;99818.33;;;11.52;92.48
28027;BME280;15344;52.342;-1.290;2024-01-06T03:24:07;99822.34;;;11.54;91.88
28027;BME280;15344;52.342;-1.290;2024-01-06T03:26:32;99824.46;;;11.06;94.46
28027;BME280;15344;52.342;-1.290;2024-01-06T03:28:57;99826.20;;;10.97;93.69
28027;BME280;15344;52.342;-1.290;2024-01-06T03:31:23;99825.93;;;11.37;92.22
28027;BME280;15344;52.342;-1.290;2024-01-06T03:33:48;99828.91;;;11.43;91.49
28027;BME280;15344;52.342;-1.290;2024-01-06T03:36:13;99830.67;;;10.28;95.09
28027;BME280;15344;52.342;-1.290;2024-01-06T03:38:38;99831.61;;;10.58;96.57
28027;BME280;15344;52.342;-1.290;2024-01-06T03:41:04;99833.25;;;10.56;97.31
28027;BME280;15344;52.342;-1.290;2024-01-06T03:43:29;99832.19;;;10.73;95.86
28027;BME280;15344;52.342;-1.290;2024-01-06T03:45:54;99833.37;;;8.48;100.00
28027;BME280;15344;52.342;-1.290;2024-01-06T03:48:20;99828.57;;;9.70;100.00
28027;BME280;15344;52.342;-1.290;2024-01-06T03:50:45;99828.84;;;9.34;100.00
28027;BME280;15344;52.342;-1.290;2024-01-06T03:53:11;99829.09;;;10.09;100.00
28027;BME280;15344;52.342;-1.290;2024-01-06T03:55:36;99830.81;;;10.50;99.41
28027;BME280;15344;52.342;-1.290;2024-01-06T03:58:02;99837.53;;;9.60;100.00
28027;BME280;15344;52.342;-1.290;2024-01-06T04:00:27;99839.18;;;9.88;100.00
28027;BME280;15344;52.342;-1.290;2024-01-06T04:02:53;99839.44;;;9.21;100.00
28027;BME280;15344;52.342;-1.290;2024-01-06T04:05:18;99843.26;;;8.89;100.00
28027;BME280;15344;52.342;-1.290;2024-01-06T04:07:43;99848.31;;;9.07;100.00
28027;BME280;15344;52.342;-1.290;2024-01-06T04:10:09;99849.19;;;9.73;100.00
28027;BME280;15344;52.342;-1.290;2024-01-06T04:12:34;99851.59;;;10.26;100.00
28027;BME280;15344;52.342;-1.290;2024-01-06T04:14:59;99853.97;;;9.24;100.00
28027;BME280;15344;52.342;-1.290;2024-01-06T04:17:24;99855.55;;;9.33;100.00
28027;BME280;15344;52.342;-1.290;2024-01-06T04:19:50;99858.25;;;8.90;100.00
28027;BME280;15344;52.342;-1.290;2024-01-06T04:22:16;99859.40;;;8.86;100.00
28027;BME280;15344;52.342;-1.290;2024-01-06T04:24:41;99860.32;;;9.04;100.00
28027;BME280;15344;52.342;-1.290;2024-01-06T04:27:06;99862.56;;;9.24;100.00
28027;BME280;15344;52.342;-1.290;2024-01-06T04:29:32;99869.41;;;8.41;100.00
28027;BME280;15344;52.342;-1.290;2024-01-06T04:31:57;99871.79;;;8.29;100.00
28027;BME280;15344;52.342;-1.290;2024-01-06T04:34:22;99874.96;;;8.21;100.00
28027;BME280;15344;52.342;-1.290;2024-01-06T04:36:47;99875.68;;;8.64;100.00
28027;BME280;15344;52.342;-1.290;2024-01-06T04:39:13;99877.46;;;8.47;100.00
28027;BME280;15344;52.342;-1.290;2024-01-06T04:41:38;99877.47;;;8.05;100.00
28027;BME280;15344;52.342;-1.290;2024-01-06T04:44:04;99881.64;;;9.22;100.00
28027;BME280;15344;52.342;-1.290;2024-01-06T04:46:29;99883.67;;;8.28;100.00
28027;BME280;15344;52.342;-1.290;2024-01-06T04:48:55;99883.69;;;8.73;100.00
28027;BME280;15344;52.342;-1.290;2024-01-06T04:51:20;99884.89;;;8.24;100.00
28027;BME280;15344;52.342;-1.290;2024-01-06T04:53:46;99888.59;;;9.03;100.00
28027;BME280;15344;52.342;-1.290;2024-01-06T04:56:11;99892.34;;;8.37;100.00
28027;BME280;15344;52.342;-1.290;2024-01-06T04:58:36;99894.33;;;8.77;100.00
28027;BME280;15344;52.342;-1.290;2024-01-06T05:01:02;99896.84;;;9.10;100.00
28027;BME280;15344;52.342;-1.290;2024-01-06T05:03:27;99897.66;;;8.25;100.00
28027;BME280;15344;52.342;-1.290;2024-01-06T05:05:53;99899.42;;;9.87;100.00
28027;BME280;15344;52.342;-1.290;2024-01-06T05:08:18;99901.15;;;10.29;99.04
28027;BME280;15344;52.342;-1.290;2024-01-06T05:10:44;99913.45;;;9.83;100.00
28027;BME280;15344;52.342;-1.290;2024-01-06T05:13:09;99913.71;;;9.43;100.00
28027;BME280;15344;52.342;-1.290;2024-01-06T05:15:35;99914.41;;;9.91;100.00
28027;BME280;15344;52.342;-1.290;2024-01-06T05:18:00;99918.32;;;8.96;100.00
28027;BME280;15344;52.342;-1.290;2024-01-06T05:20:25;99919.27;;;9.37;100.00
28027;BME280;15344;52.342;-1.290;2024-01-06T05:22:51;99926.48;;;8.77;100.00
28027;BME280;15344;52.342;-1.290;2024-01-06T05:25:16;99928.04;;;9.88;99.68
28027;BME280;15344;52.342;-1.290;2024-01-06T05:27:41;99931.10;;;9.59;100.00
28027;BME280;15344;52.342;-1.290;2024-01-06T05:30:08;99934.08;;;9.64;100.00
28027;BME280;15344;52.342;-1.290;2024-01-06T05:32:32;99932.65;;;9.80;100.00
28027;BME280;15344;52.342;-1.290;2024-01-06T05:34:58;99933.63;;;9.88;97.50
28027;BME280;15344;52.342;-1.290;2024-01-06T05:37:23;99937.83;;;11.09;92.25
28027;BME280;15344;52.342;-1.290;2024-01-06T05:39:48;99943.48;;;9.61;95.61
28027;BME280;15344;52.342;-1.290;2024-01-06T05:42:14;99942.94;;;9.95;97.13
28027;BME280;15344;52.342;-1.290;2024-01-06T05:44:40;99943.87;;;10.57;93.41
28027;BME280;15344;52.342;-1.290;2024-01-06T05:47:05;99952.08;;;9.73;96.55
28027;BME280;15344;52.342;-1.290;2024-01-06T05:49:31;99955.33;;;10.64;93.18
28027;BME280;15344;52.342;-1.290;2024-01-06T05:51:56;99956.62;;;10.30;93.69
28027;BME280;15344;52.342;-1.290;2024-01-06T05:54:22;99962.85;;;10.14;96.31
28027;BME280;15344;52.342;-1.290;2024-01-06T05:56:47;99968.73;;;9.11;98.31
28027;BME280;15344;52.342;-1.290;2024-01-06T05:59:12;99965.47;;;10.50;94.23
28027;BME280;15344;52.342;-1.290;2024-01-06T06:01:38;99969.18;;;10.00;96.32
28027;BME280;15344;52.342;-1.290;2024-01-06T06:04:03;99973.38;;;9.85;95.29
28027;BME280;15344;52.342;-1.290;2024-01-06T06:06:29;99971.16;;;9.65;95.77
28027;BME280;15344;52.342;-1.290;2024-01-06T06:08:54;99976.39;;;10.45;93.10
28027;BME280;15344;52.342;-1.290;2024-01-06T06:11:19;99982.23;;;9.67;95.88
28027;BME280;15344;52.342;-1.290;2024-01-06T06:13:44;99981.83;;;10.26;92.48
28027;BME280;15344;52.342;-1.290;2024-01-06T06:16:10;99985.84;;;10.47;93.67
28027;BME280;15344;52.342;-1.290;2024-01-06T06:18:34;99992.83;;;9.86;95.63
28027;BME280;15344;52.342;-1.290;2024-01-06T06:21:00;99997.42;;;9.40;96.13
28027;BME280;15344;52.342;-1.290;2024-01-06T06:23:26;100000.72;;;9.71;96.03
28027;BME280;15344;52.342;-1.290;2024-01-06T06:25:51;100001.44;;;10.15;91.77
28027;BME280;15344;52.342;-1.290;2024-01-06T06:28:16;100003.06;;;10.38;90.48
28027;BME280;15344;52.342;-1.290;2024-01-06T06:30:41;100005.72;;;10.43;89.40
28027;BME280;15344;52.342;-1.290;2024-01-06T06:33:06;100011.08;;;9.94;89.98
28027;BME280;15344;52.342;-1.290;2024-01-06T06:35:32;100016.00;;;10.10;91.70
28027;BME280;15344;52.342;-1.290;2024-01-06T06:37:57;100015.25;;;10.91;88.52
28027;BME280;15344;52.342;-1.290;2024-01-06T06:40:23;100020.28;;;9.91;91.82
28027;BME280;15344;52.342;-1.290;2024-01-06T06:42:48;100022.76;;;10.81;88.70
28027;BME280;15344;52.342;-1.290;2024-01-06T06:45:14;100030.63;;;10.73;88.50
28027;BME280;15344;52.342;-1.290;2024-01-06T06:47:39;100036.33;;;10.72;89.96
28027;BME280;15344;52.342;-1.290;2024-01-06T06:50:05;100037.24;;;10.24;89.43
28027;BME280;15344;52.342;-1.290;2024-01-06T06:52:30;100037.16;;;10.16;89.39
28027;BME280;15344;52.342;-1.290;2024-01-06T06:54:55;100041.37;;;10.34;90.13
28027;BME280;15344;52.342;-1.290;2024-01-06T06:57:21;100043.78;;;9.26;94.22
28027;BME280;15344;52.342;-1.290;2024-01-06T06:59:46;100051.11;;;9.61;91.19
28027;BME280;15344;52.342;-1.290;2024-01-06T07:02:12;100054.82;;;10.66;89.34
28027;BME280;15344;52.342;-1.290;2024-01-06T07:04:38;100059.94;;;9.71;90.98
28027;BME280;15344;52.342;-1.290;2024-01-06T07:07:03;100065.40;;;9.92;90.01
28027;BME280;15344;52.342;-1.290;2024-01-06T07:09:29;100065.62;;;10.46;87.38
28027;BME280;15344;52.342;-1.290;2024-01-06T07:11:54;100072.07;;;10.19;87.46
28027;BME280;15344;52.342;-1.290;2024-01-06T07:14:19;100076.17;;;10.86;85.90
28027;BME280;15344;52.342;-1.290;2024-01-06T07:16:44;100081.49;;;10.48;86.64
28027;BME280;15344;52.342;-1.290;2024-01-06T07:19:09;100083.74;;;10.74;85.47
28027;BME280;15344;52.342;-1.290;2024-01-06T07:21:34;100092.09;;;10.83;84.95
28027;BME280;15344;52.342;-1.290;2024-01-06T07:24:00;100096.47;;;9.99;87.22
28027;BME280;15344;52.342;-1.290;2024-01-06T07:26:26;100098.29;;;10.67;84.13
28027;BME280;15344;52.342;-1.290;2024-01-06T07:28:51;100107.30;;;10.04;86.45
28027;BME280;15344;52.342;-1.290;2024-01-06T07:31:17;100112.46;;;10.66;84.14
28027;BME280;15344;52.342;-1.290;2024-01-06T07:33:42;100118.94;;;11.11;82.36
28027;BME280;15344;52.342;-1.290;2024-01-06T07:36:08;100124.13;;;11.23;82.04
28027;BME280;15344;52.342;-1.290;2024-01-06T07:38:33;100128.72;;;10.99;83.94
28027;BME280;15344;52.342;-1.290;2024-01-06T07:40:59;100135.51;;;10.57;84.58
28027;BME280;15344;52.342;-1.290;2024-01-06T07:43:24;100139.69;;;11.34;82.19
28027;BME280;15344;52.342;-1.290;2024-01-06T07:45:50;100144.69;;;10.95;80.62
28027;BME280;15344;52.342;-1.290;2024-01-06T07:48:15;100149.31;;;10.67;82.22
28027;BME280;15344;52.342;-1.290;2024-01-06T07:50:40;100156.61;;;10.72;81.91
28027;BME280;15344;52.342;-1.290;2024-01-06T07:53:06;100162.42;;;10.84;80.26
28027;BME280;15344;52.342;-1.290;2024-01-06T07:55:32;100165.06;;;10.67;80.24
28027;BME280;15344;52.342;-1.290;2024-01-06T07:57:57;100165.10;;;10.42;79.88
28027;BME280;15344;52.342;-1.290;2024-01-06T08:00:23;100170.18;;;9.85;82.05
28027;BME280;15344;52.342;-1.290;2024-01-06T08:02:48;100171.77;;;9.78;83.34
28027;BME280;15344;52.342;-1.290;2024-01-06T08:05:14;100177.83;;;10.30;80.77
28027;BME280;15344;52.342;-1.290;2024-01-06T08:07:39;100185.09;;;8.48;87.30
28027;BME280;15344;52.342;-1.290;2024-01-06T08:10:05;100189.27;;;8.60;87.88
28027;BME280;15344;52.342;-1.290;2024-01-06T08:12:30;100194.08;;;9.62;85.96
28027;BME280;15344;52.342;-1.290;2024-01-06T08:14:55;100199.57;;;8.97;86.44
28027;BME280;15344;52.342;-1.290;2024-01-06T08:17:21;100202.81;;;9.38;85.39
28027;BME280;15344;52.342;-1.290;2024-01-06T08:19:46;100212.08;;;8.94;86.96
28027;BME280;15344;52.342;-1.290;2024-01-06T08:22:12;100214.40;;;8.96;86.95
28027;BME280;15344;52.342;-1.290;2024-01-06T08:24:37;100219.07;;;9.04;85.55
28027;BME280;15344;52.342;-1.290;2024-01-06T08:27:03;100224.41;;;9.48;83.90
28027;BME280;15344;52.342;-1.290;2024-01-06T08:29:27;100229.40;;;9.29;83.41
28027;BME280;15344;52.342;-1.290;2024-01-06T08:31:53;100234.48;;;8.72;85.92
28027;BME280;15344;52.342;-1.290;2024-01-06T08:34:19;100238.51;;;8.73;84.50
28027;BME280;15344;52.342;-1.290;2024-01-06T08:36:44;100244.20;;;9.06;83.80
28027;BME280;15344;52.342;-1.290;2024-01-06T08:39:09;100243.68;;;8.13;87.89
28027;BME280;15344;52.342;-1.290;2024-01-06T08:41:35;100246.61;;;8.37;86.18
28027;BME280;15344;52.342;-1.290;2024-01-06T08:44:00;100251.38;;;8.60;87.92
28027;BME280;15344;52.342;-1.290;2024-01-06T08:46:26;100256.75;;;7.16;94.44
28027;BME280;15344;52.342;-1.290;2024-01-06T08:48:52;100259.56;;;7.60;92.10
28027;BME280;15344;52.342;-1.290;2024-01-06T08:51:17;100260.42;;;8.03;90.95
28027;BME280;15344;52.342;-1.290;2024-01-06T08:53:42;100265.73;;;7.39;95.20
28027;BME280;15344;52.342;-1.290;2024-01-06T08:56:08;100264.20;;;8.22;92.61
28027;BME280;15344;52.342;-1.290;2024-01-06T08:58:33;100273.71;;;7.00;96.17
28027;BME280;15344;52.342;-1.290;2024-01-06T09:00:59;100279.77;;;7.75;93.32
28027;BME280;15344;52.342;-1.290;2024-01-06T09:03:23;100283.56;;;8.20;90.46
28027;BME280;15344;52.342;-1.290;2024-01-06T09:05:49;100292.18;;;6.45;97.27
28027;BME280;15344;52.342;-1.290;2024-01-06T09:08:14;100295.76;;;7.59;95.49
28027;BME280;15344;52.342;-1.290;2024-01-06T09:10:40;100297.14;;;7.86;94.00
28027;BME280;15344;52.342;-1.290;2024-01-06T09:13:05;100299.54;;;8.46;90.35
28027;BME280;15344;52.342;-1.290;2024-01-06T09:15:31;100304.95;;;8.32;89.75
28027;BME280;15344;52.342;-1.290;2024-01-06T09:17:56;100311.01;;;8.14;91.18
28027;BME280;15344;52.342;-1.290;2024-01-06T09:20:22;100312.28;;;7.83;91.48
28027;BME280;15344;52.342;-1.290;2024-01-06T09:22:47;100320.51;;;8.17;90.46
28027;BME280;15344;52.342;-1.290;2024-01-06T09:25:14;100322.33;;;8.14;91.63
28027;BME280;15344;52.342;-1.290;2024-01-06T09:27:38;100329.76;;;7.53;96.18
28027;BME280;15344;52.342;-1.290;2024-01-06T09:30:06;100329.14;;;7.97;93.62
28027;BME280;15344;52.342;-1.290;2024-01-06T09:32:30;100329.10;;;7.74;91.62
28027;BME280;15344;52.342;-1.290;2024-01-06T09:34:55;100337.42;;;8.43;91.07
28027;BME280;15344;52.342;-1.290;2024-01-06T09:37:20;100334.11;;;8.09;91.95
28027;BME280;15344;52.342;-1.290;2024-01-06T09:39:46;100338.09;;;7.97;94.07
28027;BME280;15344;52.342;-1.290;2024-01-06T09:42:11;100342.60;;;8.22;92.78
28027;BME280;15344;52.342;-1.290;2024-01-06T09:44:37;100344.85;;;7.67;92.03
28027;BME280;15344;52.342;-1.290;2024-01-06T09:47:03;100343.49;;;8.78;88.66
28027;BME280;15344;52.342;-1.290;2024-01-06T09:49:29;100344.28;;;8.91;88.07
28027;BME280;15344;52.342;-1.290;2024-01-06T09:51:57;100344.08;;;8.56;89.66
28027;BME280;15344;52.342;-1.290;2024-01-06T09:54:23;100349.24;;;8.15;89.95
28027;BME280;15344;52.342;-1.290;2024-01-06T09:56:45;100349.19;;;8.15;89.93
28027;BME280;15344;52.342;-1.290;2024-01-06T09:59:10;100349.21;;;8.93;89.05
28027;BME280;15344;52.342;-1.290;2024-01-06T10:01:36;100350.61;;;8.38;91.46
28027;BME280;15344;52.342;-1.290;2024-01-06T10:04:01;100352.51;;;7.77;92.44
28027;BME280;15344;52.342;-1.290;2024-01-06T10:06:28;100352.98;;;9.15;87.71
28027;BME280;15344;52.342;-1.290;2024-01-06T10:08:53;100363.36;;;7.48;95.12
28027;BME280;15344;52.342;-1.290;2024-01-06T10:11:18;100363.51;;;6.78;99.38
28027;BME280;15344;52.342;-1.290;2024-01-06T10:13:43;100363.54;;;8.37;92.45
28027;BME280;15344;52.342;-1.290;2024-01-06T10:16:09;100368.91;;;7.32;96.95
28027;BME280;15344;52.342;-1.290;2024-01-06T10:18:34;100369.71;;;7.15;97.48
28027;BME280;15344;52.342;-1.290;2024-01-06T10:21:00;100368.93;;;7.46;97.81
28027;BME280;15344;52.342;-1.290;2024-01-06T10:23:27;100370.40;;;7.73;97.31
28027;BME280;15344;52.342;-1.290;2024-01-06T10:25:52;100371.79;;;7.10;99.33
28027;BME280;15344;52.342;-1.290;2024-01-06T10:28:16;100371.89;;;7.22;100.00
28027;BME280;15344;52.342;-1.290;2024-01-06T10:30:41;100374.19;;;7.54;100.00
28027;BME280;15344;52.342;-1.290;2024-01-06T10:33:09;100374.75;;;7.91;97.32
28027;BME280;15344;52.342;-1.290;2024-01-06T10:35:32;100375.43;;;7.39;98.58
28027;BME280;15344;52.342;-1.290;2024-01-06T10:37:58;100375.19;;;7.61;97.50
28027;BME280;15344;52.342;-1.290;2024-01-06T10:40:23;100376.97;;;6.50;100.00
28027;BME280;15344;52.342;-1.290;2024-01-06T10:42:49;100381.28;;;8.06;98.95
28027;BME280;15344;52.342;-1.290;2024-01-06T10:45:15;100384.42;;;7.76;97.67
28027;BME280;15344;52.342;-1.290;2024-01-06T10:47:41;100388.04;;;6.98;100.00
28027;BME280;15344;52.342;-1.290;2024-01-06T10:50:07;100387.27;;;7.62;99.29
28027;BME280;15344;52.342;-1.290;2024-01-06T10:52:31;100384.85;;;7.19;100.00
28027;BME280;15344;52.342;-1.290;2024-01-06T10:54:57;100387.99;;;7.46;100.00
28027;BME280;15344;52.342;-1.290;2024-01-06T10:57:22;100388.94;;;7.87;97.76
28027;BME280;15344;52.342;-1.290;2024-01-06T10:59:49;100389.11;;;8.28;96.93
28027;BME280;15344;52.342;-1.290;2024-01-06T11:02:12;100391.12;;;8.57;94.17
28027;BME280;15344;52.342;-1.290;2024-01-06T11:04:37;100392.17;;;8.18;97.16
28027;BME280;15344;52.342;-1.290;2024-01-06T11:07:04;100395.43;;;8.35;97.56
28027;BME280;15344;52.342;-1.290;2024-01-06T11:09:32;100394.13;;;8.65;94.02
28027;BME280;15344;52.342;-1.290;2024-01-06T11:11:54;100399.35;;;7.44;98.88
28027;BME280;15344;52.342;-1.290;2024-01-06T11:14:21;100397.94;;;8.48;96.39
28027;BME280;15344;52.342;-1.290;2024-01-06T11:16:46;100398.00;;;8.75;93.87
28027;BME280;15344;52.342;-1.290;2024-01-06T11:21:35;100395.14;;;9.46;90.11
28027;BME280;15344;52.342;-1.290;2024-01-06T11:24:12;100395.65;;;9.36;88.99
28027;BME280;15344;52.342;-1.290;2024-01-06T11:26:26;100397.79;;;9.28;88.56
28027;BME280;15344;52.342;-1.290;2024-01-06T11:28:51;100399.57;;;9.61;87.78
28027;BME280;15344;52.342;-1.290;2024-01-06T11:31:17;100397.76;;;9.59;86.80
28027;BME280;15344;52.342;-1.290;2024-01-06T11:33:43;100395.80;;;8.61;90.80
28027;BME280;15344;52.342;-1.290;2024-01-06T11:36:08;100398.93;;;9.61;86.64
28027;BME280;15344;52.342;-1.290;2024-01-06T11:38:37;100400.48;;;9.25;88.90
28027;BME280;15344;52.342;-1.290;2024-01-06T11:40:59;100405.59;;;8.38;89.99
28027;BME280;15344;52.342;-1.290;2024-01-06T11:43:27;100405.08;;;8.94;90.05
28027;BME280;15344;52.342;-1.290;2024-01-06T11:45:51;100409.29;;;8.74;90.50
28027;BME280;15344;52.342;-1.290;2024-01-06T11:48:16;100411.03;;;8.10;95.35
28027;BME280;15344;52.342;-1.290;2024-01-06T11:50:41;100411.61;;;8.55;93.89
28027;BME280;15344;52.342;-1.290;2024-01-06T11:53:07;100411.15;;;9.39;90.08
28027;BME280;15344;52.342;-1.290;2024-01-06T11:55:32;100411.30;;;9.03;89.36
28027;BME280;15344;52.342;-1.290;2024-01-06T11:57:58;100413.85;;;8.29;92.20
28027;BME280;15344;52.342;-1.290;2024-01-06T12:00:23;100411.39;;;8.45;94.48
28027;BME280;15344;52.342;-1.290;2024-01-06T12:02:48;100412.43;;;9.30;88.92
28027;BME280;15344;52.342;-1.290;2024-01-06T12:05:15;100413.53;;;9.39;88.15
28027;BME280;15344;52.342;-1.290;2024-01-06T12:07:41;100414.05;;;9.22;89.33
28027;BME280;15344;52.342;-1.290;2024-01-06T12:10:05;100413.22;;;7.98;95.50
28027;BME280;15344;52.342;-1.290;2024-01-06T12:12:30;100411.72;;;9.72;88.58
28027;BME280;15344;52.342;-1.290;2024-01-06T12:14:56;100411.14;;;9.33;89.15
28027;BME280;15344;52.342;-1.290;2024-01-06T12:17:22;100412.21;;;9.47;89.53
28027;BME280;15344;52.342;-1.290;2024-01-06T12:19:47;100412.92;;;7.29;96.19
28027;BME280;15344;52.342;-1.290;2024-01-06T12:22:13;100410.29;;;8.82;91.29
28027;BME280;15344;52.342;-1.290;2024-01-06T12:24:38;100411.32;;;8.99;91.46
28027;BME280;15344;52.342;-1.290;2024-01-06T12:27:03;100410.05;;;7.94;96.08
28027;BME280;15344;52.342;-1.290;2024-01-06T12:29:28;100404.67;;;9.17;90.02
28027;BME280;15344;52.342;-1.290;2024-01-06T12:31:54;100409.71;;;9.69;89.10
28027;BME280;15344;52.342;-1.290;2024-01-06T12:34:20;100414.39;;;9.51;89.66
28027;BME280;15344;52.342;-1.290;2024-01-06T12:36:44;100414.51;;;8.17;94.76
28027;BME280;15344;52.342;-1.290;2024-01-06T12:39:12;100412.31;;;9.19;91.61
28027;BME280;15344;52.342;-1.290;2024-01-06T12:41:37;100413.54;;;9.25;90.85